Time;durP1;ratioP1;P1;durP2;ratioP2;P2;SDS_P1;SDS_P2;PMS_P1;PMS_P2;Temp;Humidity;BMP_temperature;BMP_pressure;BME280_temperature;BME280_humidity;BME280_pressure;Samples;Min_cycle;Max_cycle;Signal;HPM_P1;HPM_P2
2023/07/19 00:00:35;;;;;;;;;;;22.80;58.50;;;;;;5073966;28;20078;-61
2023/07/19 00:03:01;;;;;;;;;;;22.80;58.60;;;;;;5075163;28;20520;-61
2023/07/19 00:05:26;;;;;;;;;;;22.80;58.60;;;;;;5073951;28;19924;-61
2023/07/19 00:07:52;;;;;;;;;;;22.80;58.60;;;;;;5073820;28;19995;-61
2023/07/19 00:10:17;;;;;;;;;;;22.80;58.60;;;;;;5074053;28;20019;-61
2023/07/19 00:12:43;;;;;;;;;;;22.80;58.60;;;;;;5073923;28;19920;-61
2023/07/19 00:15:08;;;;;;;;;;;22.80;58.70;;;;;;5074065;28;20346;-61
2023/07/19 00:17:34;;;;;;;;;;;22.70;58.60;;;;;;5074801;28;19920;-61
2023/07/19 00:19:59;;;;;;;;;;;22.70;58.60;;;;;;5073469;28;19920;-61
2023/07/19 00:22:25;;;;;;;;;;;22.70;58.60;;;;;;5074890;28;19927;-61
2023/07/19 00:24:51;;;;;;;;;;;22.70;58.60;;;;;;5073370;28;19925;-61
2023/07/19 00:27:16;;;;;;;;;;;22.70;58.70;;;;;;5075081;28;20427;-61
2023/07/19 00:29:42;;;;;;;;;;;22.70;58.60;;;;;;5073626;28;19925;-61
2023/07/19 00:32:07;;;;;;;;;;;22.70;58.70;;;;;;5073166;28;20492;-61
2023/07/19 00:34:33;;;;;;;;;;;22.80;58.80;;;;;;5073580;28;20322;-61
2023/07/19 00:36:59;;;;;;;;;;;22.70;58.70;;;;;;5073117;28;19920;-61
2023/07/19 00:39:25;;;;;;;;;;;22.70;58.80;;;;;;5073551;28;20328;-61
2023/07/19 00:41:50;;;;;;;;;;;22.70;58.80;;;;;;5074298;28;19967;-61
2023/07/19 00:44:16;;;;;;;;;;;22.70;58.80;;;;;;5072849;28;19928;-61
2023/07/19 00:46:41;;;;;;;;;;;22.70;58.80;;;;;;5072902;28;19927;-61
2023/07/19 00:49:08;;;;;;;;;;;22.70;58.90;;;;;;5074291;28;20322;-61
2023/07/19 00:51:34;;;;;;;;;;;22.60;58.80;;;;;;5073209;28;20291;-61
2023/07/19 00:53:59;;;;;;;;;;;22.60;58.80;;;;;;5073149;28;19927;-61
2023/07/19 00:56:26;;;;;;;;;;;22.60;58.80;;;;;;5072835;28;20365;-61
2023/07/19 00:58:52;;;;;;;;;;;22.70;58.90;;;;;;5072980;28;20107;-61
2023/07/19 01:01:18;;;;;;;;;;;22.60;58.90;;;;;;5074018;28;20105;-63
2023/07/19 01:03:44;;;;;;;;;;;22.60;58.90;;;;;;5073365;28;19939;-61
2023/07/19 01:06:10;;;;;;;;;;;22.70;58.90;;;;;;5073903;28;19924;-61
2023/07/19 01:08:36;;;;;;;;;;;22.60;58.90;;;;;;5072921;28;19927;-61
2023/07/19 01:11:01;;;;;;;;;;;22.60;59.00;;;;;;5072804;28;20303;-61
2023/07/19 01:13:27;;;;;;;;;;;22.60;59.00;;;;;;5073681;28;20405;-61
2023/07/19 01:15:52;;;;;;;;;;;22.60;59.00;;;;;;5073927;28;19942;-61
2023/07/19 01:18:18;;;;;;;;;;;22.60;59.00;;;;;;5072350;28;19924;-62
2023/07/19 01:20:44;;;;;;;;;;;22.60;59.00;;;;;;5073645;28;19920;-61
2023/07/19 01:23:10;;;;;;;;;;;22.60;59.00;;;;;;5072396;28;19932;-61
2023/07/19 01:25:35;;;;;;;;;;;22.60;59.10;;;;;;5072238;28;19927;-61
2023/07/19 01:28:01;;;;;;;;;;;22.60;59.10;;;;;;5072185;28;20264;-61
2023/07/19 01:30:26;;;;;;;;;;;22.60;59.10;;;;;;5073380;28;19990;-60
2023/07/19 01:32:52;;;;;;;;;;;22.60;59.10;;;;;;5072428;28;20394;-61
2023/07/19 01:35:17;;;;;;;;;;;22.60;59.10;;;;;;5073324;28;19932;-61
2023/07/19 01:37:43;;;;;;;;;;;22.60;59.10;;;;;;5072011;28;20010;-61
2023/07/19 01:40:10;;;;;;;;;;;22.60;59.10;;;;;;5072324;28;19927;-61
2023/07/19 01:42:35;;;;;;;;;;;22.50;59.10;;;;;;5072914;28;20276;-61
2023/07/19 01:45:01;;;;;;;;;;;22.60;59.10;;;;;;5071729;28;19924;-61
2023/07/19 01:47:27;;;;;;;;;;;22.60;59.20;;;;;;5071679;28;19920;-61
2023/07/19 01:49:53;;;;;;;;;;;22.50;59.10;;;;;;5072028;28;19921;-61
2023/07/19 01:52:18;;;;;;;;;;;22.50;59.10;;;;;;5073126;28;19974;-61
2023/07/19 01:54:44;;;;;;;;;;;22.50;59.20;;;;;;5072195;28;20435;-61
2023/07/19 01:57:09;;;;;;;;;;;22.50;59.20;;;;;;5072765;28;20407;-61
2023/07/19 01:59:35;;;;;;;;;;;22.50;59.10;;;;;;5071769;28;20006;-60
2023/07/19 02:02:00;;;;;;;;;;;22.50;59.10;;;;;;5071519;28;19967;-61
2023/07/19 02:04:27;;;;;;;;;;;22.50;59.20;;;;;;5071941;28;20303;-61
2023/07/19 02:06:52;;;;;;;;;;;22.50;59.10;;;;;;5072723;28;19927;-63
2023/07/19 02:09:18;;;;;;;;;;;22.50;59.20;;;;;;5071724;28;20291;-61
2023/07/19 02:11:44;;;;;;;;;;;22.50;59.20;;;;;;5071749;28;19927;-60
2023/07/19 02:14:09;;;;;;;;;;;22.50;59.20;;;;;;5072222;28;20012;-61
2023/07/19 02:16:35;;;;;;;;;;;22.50;59.20;;;;;;5071588;28;19921;-61
2023/07/19 02:19:01;;;;;;;;;;;22.50;59.20;;;;;;5072536;28;20410;-61
2023/07/19 02:21:27;;;;;;;;;;;22.50;59.30;;;;;;5071628;28;19921;-62
2023/07/19 02:23:52;;;;;;;;;;;22.50;59.30;;;;;;5071141;28;20393;-61
2023/07/19 02:26:18;;;;;;;;;;;22.50;59.20;;;;;;5072536;28;19924;-61
2023/07/19 02:28:43;;;;;;;;;;;22.50;59.30;;;;;;5071755;28;20288;-61
2023/07/19 02:31:09;;;;;;;;;;;22.40;59.20;;;;;;5072381;28;19927;-61
2023/07/19 02:33:34;;;;;;;;;;;22.40;59.20;;;;;;5071441;28;19928;-61
2023/07/19 02:36:00;;;;;;;;;;;22.40;59.20;;;;;;5071042;28;19920;-61
2023/07/19 02:38:25;;;;;;;;;;;22.40;59.30;;;;;;5071448;28;19925;-61
2023/07/19 02:40:56;;;;;;;;;;;22.40;59.30;;;;;;5071017;28;20019;-61
2023/07/19 02:43:22;;;;;;;;;;;22.40;59.30;;;;;;5070851;28;20326;-60
2023/07/19 02:45:47;;;;;;;;;;;22.40;59.30;;;;;;5071199;28;19924;-61
2023/07/19 02:48:13;;;;;;;;;;;22.40;59.30;;;;;;5070931;28;19924;-61
2023/07/19 02:50:43;;;;;;;;;;;22.40;59.30;;;;;;5071232;28;19943;-61
2023/07/19 02:53:08;;;;;;;;;;;22.40;59.30;;;;;;5070902;28;20016;-61
2023/07/19 02:55:34;;;;;;;;;;;22.40;59.30;;;;;;5072248;28;20015;-61
2023/07/19 02:57:59;;;;;;;;;;;22.40;59.30;;;;;;5070964;28;19970;-61
2023/07/19 03:00:25;;;;;;;;;;;22.40;59.30;;;;;;5071283;28;19920;-61
2023/07/19 03:02:53;;;;;;;;;;;22.40;59.40;;;;;;5070981;28;20451;-60
2023/07/19 03:05:20;;;;;;;;;;;22.40;59.40;;;;;;5072067;28;19974;-61
2023/07/19 03:07:46;;;;;;;;;;;22.40;59.40;;;;;;5071162;28;20291;-61
2023/07/19 03:10:11;;;;;;;;;;;22.40;59.30;;;;;;5072074;28;19920;-61
2023/07/19 03:12:37;;;;;;;;;;;22.40;59.40;;;;;;5070796;28;20011;-61
2023/07/19 03:15:03;;;;;;;;;;;22.40;59.40;;;;;;5071046;28;19921;-60
2023/07/19 03:17:28;;;;;;;;;;;22.40;59.40;;;;;;5071845;28;19920;-61
2023/07/19 03:19:54;;;;;;;;;;;22.40;59.30;;;;;;5070670;28;19974;-61
2023/07/19 03:22:19;;;;;;;;;;;22.30;59.40;;;;;;5071866;28;19920;-61
2023/07/19 03:24:45;;;;;;;;;;;22.30;59.30;;;;;;5070619;28;20387;-61
2023/07/19 03:27:10;;;;;;;;;;;22.30;59.40;;;;;;5074027;28;19920;-61
2023/07/19 03:29:36;;;;;;;;;;;22.40;59.40;;;;;;5075776;28;19921;-61
2023/07/19 03:32:02;;;;;;;;;;;22.30;59.40;;;;;;5074369;28;20017;-61
2023/07/19 03:34:27;;;;;;;;;;;22.40;59.50;;;;;;5074659;28;20252;-61
2023/07/19 03:36:53;;;;;;;;;;;22.30;59.40;;;;;;5075723;28;19927;-61
2023/07/19 03:39:18;;;;;;;;;;;22.30;59.40;;;;;;5074577;28;20015;-62
2023/07/19 03:41:44;;;;;;;;;;;22.30;59.40;;;;;;5074142;28;19927;-62
2023/07/19 03:44:09;;;;;;;;;;;22.30;59.40;;;;;;5073933;28;19932;-61
2023/07/19 03:46:35;;;;;;;;;;;22.30;59.40;;;;;;5075337;28;20011;-61
2023/07/19 03:49:04;;;;;;;;;;;22.30;59.40;;;;;;5074334;28;19921;-61
2023/07/19 03:51:29;;;;;;;;;;;22.30;59.40;;;;;;5074092;28;19924;-61
2023/07/19 03:53:55;;;;;;;;;;;22.30;59.40;;;;;;5075384;28;19929;-62
2023/07/19 03:56:20;;;;;;;;;;;22.30;59.50;;;;;;5074045;28;19981;-61
2023/07/19 03:58:48;;;;;;;;;;;22.30;59.50;;;;;;5074135;28;19920;-63
2023/07/19 04:01:14;;;;;;;;;;;22.30;59.50;;;;;;5073893;28;19927;-61
2023/07/19 04:03:40;;;;;;;;;;;22.20;59.40;;;;;;5073853;28;19924;-60
2023/07/19 04:06:06;;;;;;;;;;;22.30;59.50;;;;;;5074004;28;19963;-60
2023/07/19 04:08:33;;;;;;;;;;;22.20;59.40;;;;;;5075055;28;19967;-60
2023/07/19 04:10:58;;;;;;;;;;;22.30;59.50;;;;;;5072998;28;20038;-60
2023/07/19 04:13:26;;;;;;;;;;;22.20;59.40;;;;;;5073591;28;19920;-60
2023/07/19 04:15:51;;;;;;;;;;;22.20;59.50;;;;;;5073942;28;19927;-60
2023/07/19 04:18:17;;;;;;;;;;;22.20;59.50;;;;;;5073727;28;19921;-60
2023/07/19 04:20:43;;;;;;;;;;;22.20;59.50;;;;;;5073536;28;19979;-60
2023/07/19 04:23:08;;;;;;;;;;;22.20;59.50;;;;;;5073496;28;19924;-60
2023/07/19 04:25:34;;;;;;;;;;;22.20;59.50;;;;;;5074750;28;19920;-60
2023/07/19 04:27:59;;;;;;;;;;;22.20;59.50;;;;;;5073583;28;19921;-60
2023/07/19 04:30:25;;;;;;;;;;;22.30;59.60;;;;;;5072886;28;19934;-60
2023/07/19 04:32:54;;;;;;;;;;;22.20;59.60;;;;;;5073094;28;19959;-61
2023/07/19 04:35:22;;;;;;;;;;;22.20;59.50;;;;;;5074545;28;19959;-60
2023/07/19 04:37:48;;;;;;;;;;;22.20;59.50;;;;;;5072957;28;19925;-60
2023/07/19 04:40:14;;;;;;;;;;;22.20;59.60;;;;;;5073402;28;20011;-60
2023/07/19 04:42:42;;;;;;;;;;;22.20;59.60;;;;;;5074184;28;19924;-60
2023/07/19 04:45:08;;;;;;;;;;;22.20;59.50;;;;;;5072988;28;19935;-60
2023/07/19 04:47:34;;;;;;;;;;;22.20;59.60;;;;;;5072685;28;19935;-61
2023/07/19 04:49:59;;;;;;;;;;;22.20;59.60;;;;;;5073406;28;19978;-60
2023/07/19 04:52:25;;;;;;;;;;;22.20;60.30;;;;;;5072930;28;20003;-60
2023/07/19 04:54:50;;;;;;;;;;;22.20;59.60;;;;;;5074229;28;19920;-60
2023/07/19 04:57:16;;;;;;;;;;;22.10;59.50;;;;;;5073177;28;19920;-60
2023/07/19 04:59:41;;;;;;;;;;;22.20;59.60;;;;;;5073017;28;19928;-60
2023/07/19 05:02:07;;;;;;;;;;;22.10;59.60;;;;;;5072783;28;20388;-60
2023/07/19 05:04:33;;;;;;;;;;;22.10;59.50;;;;;;5072538;28;19925;-60
2023/07/19 05:06:59;;;;;;;;;;;22.10;59.50;;;;;;5074116;28;19920;-60
2023/07/19 05:09:24;;;;;;;;;;;22.10;59.60;;;;;;5072683;28;20398;-60
2023/07/19 05:11:50;;;;;;;;;;;22.20;59.60;;;;;;5072859;28;20007;-60
2023/07/19 05:14:15;;;;;;;;;;;22.10;59.60;;;;;;5072476;28;19920;-60
2023/07/19 05:16:41;;;;;;;;;;;22.20;59.60;;;;;;5072570;28;19943;-60
2023/07/19 05:19:06;;;;;;;;;;;22.10;59.60;;;;;;5072316;28;19966;-60
2023/07/19 05:21:32;;;;;;;;;;;22.10;59.60;;;;;;5072258;28;20003;-60
2023/07/19 05:23:57;;;;;;;;;;;22.10;59.60;;;;;;5055591;28;20021;-60
2023/07/19 05:26:24;;;;;;;;;;;22.10;59.70;;;;;;5073596;28;20405;-60
2023/07/19 05:28:49;;;;;;;;;;;22.10;59.70;;;;;;5072231;28;20390;-60
2023/07/19 05:31:15;;;;;;;;;;;22.10;59.70;;;;;;5072114;28;19920;-60
2023/07/19 05:33:41;;;;;;;;;;;22.10;59.70;;;;;;5073345;28;19966;-60
2023/07/19 05:36:06;;;;;;;;;;;22.10;59.60;;;;;;5073219;28;19920;-60
2023/07/19 05:38:32;;;;;;;;;;;22.10;59.60;;;;;;5071864;28;19982;-60
2023/07/19 05:41:06;;;;;;;;;;;22.10;59.60;;;;;;5072230;28;19928;-60
2023/07/19 05:43:32;;;;;;;;;;;22.10;59.70;;;;;;5071739;28;19928;-60
2023/07/19 05:46:02;;;;;;;;;;;22.10;59.60;;;;;;5072840;28;19924;-60
2023/07/19 05:48:27;;;;;;;;;;;22.10;59.60;;;;;;5067798;28;19920;-62
2023/07/19 05:50:53;;;;;;;;;;;22.10;59.70;;;;;;5083541;22;20414;-62
2023/07/19 05:53:18;;;;;;;;;;;22.10;59.70;;;;;;5052428;28;19970;-63
2023/07/19 05:55:44;;;;;;;;;;;22.10;60.00;;;;;;5047201;28;20364;-62
2023/07/19 05:58:09;;;;;;;;;;;22.10;60.00;;;;;;5058486;28;19928;-62
2023/07/19 06:00:35;;;;;;;;;;;22.10;60.10;;;;;;5040566;28;20015;-62
2023/07/19 06:03:00;;;;;;;;;;;22.10;60.30;;;;;;5040060;28;19921;-62
2023/07/19 06:05:26;;;;;;;;;;;22.10;60.30;;;;;;5041049;28;20376;-62
2023/07/19 06:07:52;;;;;;;;;;;22.10;60.30;;;;;;5037463;28;19974;-62
2023/07/19 06:10:17;;;;;;;;;;;22.10;60.40;;;;;;5028429;28;19924;-62
2023/07/19 06:12:43;;;;;;;;;;;22.10;60.30;;;;;;5036773;28;19931;-60
2023/07/19 06:15:09;;;;;;;;;;;22.10;60.40;;;;;;5034403;28;20383;-60
2023/07/19 06:17:34;;;;;;;;;;;22.10;60.40;;;;;;5049823;28;19928;-60
2023/07/19 06:20:00;;;;;;;;;;;22.10;60.50;;;;;;5044832;28;20275;-60
2023/07/19 06:22:25;;;;;;;;;;;22.10;60.60;;;;;;5031451;28;19924;-60
2023/07/19 06:24:51;;;;;;;;;;;22.10;60.60;;;;;;5028983;28;20371;-61
2023/07/19 06:27:16;;;;;;;;;;;22.10;60.60;;;;;;5029082;28;19952;-61
2023/07/19 06:29:42;;;;;;;;;;;22.10;60.60;;;;;;5049206;28;20400;-61
2023/07/19 06:32:08;;;;;;;;;;;22.10;60.60;;;;;;5050595;28;19924;-61
2023/07/19 06:34:33;;;;;;;;;;;22.10;60.70;;;;;;5030790;28;20434;-60
2023/07/19 06:36:59;;;;;;;;;;;22.10;60.90;;;;;;5050898;28;19932;-60
2023/07/19 06:39:24;;;;;;;;;;;22.10;61.10;;;;;;5032335;28;19985;-60
2023/07/19 06:41:50;;;;;;;;;;;22.10;61.20;;;;;;5048749;28;20028;-60
2023/07/19 06:44:15;;;;;;;;;;;22.10;61.20;;;;;;5048554;28;19925;-60
2023/07/19 06:46:41;;;;;;;;;;;22.10;61.30;;;;;;5033966;28;19972;-59
2023/07/19 06:49:07;;;;;;;;;;;22.10;61.50;;;;;;5053093;28;19924;-59
2023/07/19 06:51:32;;;;;;;;;;;22.20;61.60;;;;;;5047694;28;20015;-59
2023/07/19 06:53:58;;;;;;;;;;;22.20;61.70;;;;;;5029364;28;19932;-59
2023/07/19 06:56:23;;;;;;;;;;;22.20;61.70;;;;;;5031627;28;19925;-59
2023/07/19 06:58:49;;;;;;;;;;;22.20;61.60;;;;;;5045539;28;19924;-59
2023/07/19 07:01:14;;;;;;;;;;;22.20;61.50;;;;;;5034864;28;19924;-61
2023/07/19 07:03:40;;;;;;;;;;;22.20;61.50;;;;;;5033749;28;19928;-60
2023/07/19 07:06:05;;;;;;;;;;;22.20;61.50;;;;;;5030938;28;20283;-62
2023/07/19 07:08:31;;;;;;;;;;;22.20;61.70;;;;;;5038764;28;19944;-62
2023/07/19 07:10:58;;;;;;;;;;;22.20;61.80;;;;;;5033055;28;21113;-62
2023/07/19 07:13:24;;;;;;;;;;;22.30;62.00;;;;;;5036107;28;20634;-61
2023/07/19 07:15:50;;;;;;;;;;;22.30;62.00;;;;;;5030652;28;20135;-61
2023/07/19 07:18:15;;;;;;;;;;;22.30;61.90;;;;;;5034493;28;19921;-61
2023/07/19 07:20:41;;;;;;;;;;;22.30;61.80;;;;;;5034562;28;19928;-62
2023/07/19 07:23:06;;;;;;;;;;;22.30;61.70;;;;;;5040746;28;19925;-59
2023/07/19 07:25:33;;;;;;;;;;;22.30;61.50;;;;;;5034171;28;19925;-60
2023/07/19 07:27:59;;;;;;;;;;;22.30;61.60;;;;;;5041959;28;19966;-60
2023/07/19 07:30:25;;;;;;;;;;;22.30;61.50;;;;;;5034628;28;19925;-59
2023/07/19 07:32:50;;;;;;;;;;;22.30;61.60;;;;;;5039938;28;19986;-60
2023/07/19 07:35:16;;;;;;;;;;;22.30;61.70;;;;;;5056094;28;19921;-62
2023/07/19 07:37:41;;;;;;;;;;;22.30;61.70;;;;;;5035234;28;20348;-62
2023/07/19 07:40:08;;;;;;;;;;;22.30;61.90;;;;;;5021647;28;19925;-62
2023/07/19 07:42:34;;;;;;;;;;;22.30;61.70;;;;;;5031393;28;20265;-63
2023/07/19 07:44:59;;;;;;;;;;;22.40;61.70;;;;;;5030706;28;19932;-62
2023/07/19 07:47:25;;;;;;;;;;;22.40;61.70;;;;;;5034949;28;19971;-63
2023/07/19 07:49:51;;;;;;;;;;;22.40;61.70;;;;;;5049929;28;19924;-61
2023/07/19 07:52:17;;;;;;;;;;;22.40;61.90;;;;;;5054121;28;20029;-62
2023/07/19 07:54:42;;;;;;;;;;;22.40;62.00;;;;;;5034176;28;19925;-60
2023/07/19 07:57:08;;;;;;;;;;;22.40;62.30;;;;;;5049064;28;20313;-61
2023/07/19 07:59:33;;;;;;;;;;;22.40;62.10;;;;;;5034058;28;19928;-61
2023/07/19 08:01:59;;;;;;;;;;;22.40;62.20;;;;;;5034591;28;19974;-62
2023/07/19 08:04:25;;;;;;;;;;;22.40;62.20;;;;;;5047470;28;19959;-62
2023/07/19 08:06:50;;;;;;;;;;;22.40;62.20;;;;;;5050414;28;19992;-62
2023/07/19 08:09:16;;;;;;;;;;;22.40;62.30;;;;;;5049461;28;20310;-62
2023/07/19 08:11:42;;;;;;;;;;;22.40;62.10;;;;;;5050221;28;19924;-61
2023/07/19 08:14:07;;;;;;;;;;;22.40;62.00;;;;;;5033853;28;19947;-62
2023/07/19 08:16:33;;;;;;;;;;;22.40;62.10;;;;;;5041521;28;19927;-62
2023/07/19 08:18:58;;;;;;;;;;;22.40;62.10;;;;;;5033120;28;19933;-62
2023/07/19 08:21:25;;;;;;;;;;;22.40;61.90;;;;;;5037709;28;20054;-62
2023/07/19 08:23:53;;;;;;;;;;;22.40;61.70;;;;;;5033370;28;19948;-62
2023/07/19 08:26:19;;;;;;;;;;;22.40;61.60;;;;;;5040140;28;19960;-62
2023/07/19 08:28:44;;;;;;;;;;;22.40;61.50;;;;;;5038632;28;19924;-63
2023/07/19 08:31:10;;;;;;;;;;;22.40;61.40;;;;;;5035142;28;19975;-62
2023/07/19 08:33:36;;;;;;;;;;;22.40;61.40;;;;;;5052396;28;19974;-61
2023/07/19 08:36:01;;;;;;;;;;;22.40;61.20;;;;;;5033988;28;21418;-61
2023/07/19 08:38:27;;;;;;;;;;;22.40;61.10;;;;;;5051265;28;19959;-62
2023/07/19 08:40:58;;;;;;;;;;;22.40;61.30;;;;;;5037675;28;19928;-61
2023/07/19 08:43:25;;;;;;;;;;;22.40;61.50;;;;;;5054437;28;20486;-62
2023/07/19 08:45:50;;;;;;;;;;;22.50;61.60;;;;;;5038858;28;20417;-61
2023/07/19 08:48:16;;;;;;;;;;;22.40;61.70;;;;;;5051045;28;19920;-61
2023/07/19 08:50:42;;;;;;;;;;;22.50;61.60;;;;;;5056135;28;19928;-61
2023/07/19 08:53:08;;;;;;;;;;;22.50;61.70;;;;;;5052573;28;20031;-61
2023/07/19 08:55:33;;;;;;;;;;;22.50;61.80;;;;;;5034572;28;20442;-59
2023/07/19 08:57:59;;;;;;;;;;;22.50;61.80;;;;;;5050726;28;19920;-59
2023/07/19 09:00:28;;;;;;;;;;;22.50;61.80;;;;;;5057315;28;19927;-57
2023/07/19 09:02:54;;;;;;;;;;;22.60;61.90;;;;;;5034675;28;19930;-59
2023/07/19 09:05:19;;;;;;;;;;;22.60;61.60;;;;;;5031493;28;20406;-58
2023/07/19 09:07:47;;;;;;;;;;;22.60;61.40;;;;;;5036462;28;19925;-58
2023/07/19 09:10:12;;;;;;;;;;;22.60;61.40;;;;;;5055835;28;19924;-58
2023/07/19 09:12:39;;;;;;;;;;;22.60;61.30;;;;;;5054623;28;19960;-58
2023/07/19 09:15:05;;;;;;;;;;;22.60;61.30;;;;;;5033751;28;19927;-58
2023/07/19 09:17:34;;;;;;;;;;;22.60;61.20;;;;;;5043218;28;19928;-58
2023/07/19 09:19:59;;;;;;;;;;;22.50;61.00;;;;;;5052856;28;20332;-58
2023/07/19 09:22:26;;;;;;;;;;;22.60;61.10;;;;;;5037173;28;20070;-59
2023/07/19 09:24:53;;;;;;;;;;;22.50;61.00;;;;;;5035974;28;20430;-58
2023/07/19 09:27:26;;;;;;;;;;;22.50;61.00;;;;;;5034042;28;19928;-59
2023/07/19 09:29:51;;;;;;;;;;;22.60;61.00;;;;;;5027176;28;19963;-60
2023/07/19 09:32:17;;;;;;;;;;;22.60;60.90;;;;;;5052613;28;20003;-59
2023/07/19 09:34:43;;;;;;;;;;;22.50;60.70;;;;;;5030384;28;19925;-60
2023/07/19 09:37:12;;;;;;;;;;;22.60;61.00;;;;;;5032230;28;19981;-59
2023/07/19 09:39:37;;;;;;;;;;;22.60;61.80;;;;;;5051707;28;19935;-59
2023/07/19 09:42:03;;;;;;;;;;;22.60;61.10;;;;;;5056097;28;19925;-60
2023/07/19 09:44:30;;;;;;;;;;;22.60;61.10;;;;;;5035207;28;19981;-62
2023/07/19 09:46:56;;;;;;;;;;;22.60;60.90;;;;;;5041756;28;20334;-58
2023/07/19 09:49:24;;;;;;;;;;;22.60;60.80;;;;;;5051801;28;19925;-58
2023/07/19 09:51:51;;;;;;;;;;;22.60;60.80;;;;;;5036535;28;20414;-61
2023/07/19 09:54:17;;;;;;;;;;;22.60;60.80;;;;;;5033851;28;19920;-59
2023/07/19 09:56:43;;;;;;;;;;;22.60;60.70;;;;;;5051653;28;20236;-59
2023/07/19 09:59:11;;;;;;;;;;;22.60;60.70;;;;;;5030378;28;19921;-59
2023/07/19 10:01:36;;;;;;;;;;;22.60;60.90;;;;;;5033376;28;19981;-61
2023/07/19 10:04:20;;;;;;;;;;;22.60;60.90;;;;;;5034910;28;20367;-59
2023/07/19 10:06:45;;;;;;;;;;;22.70;60.90;;;;;;5044903;28;19924;-60
2023/07/19 10:09:31;;;;;;;;;;;22.70;60.90;;;;;;5054435;28;19974;-61
2023/07/19 10:11:58;;;;;;;;;;;22.70;60.90;;;;;;5039912;28;20291;-61
2023/07/19 10:14:26;;;;;;;;;;;22.70;61.00;;;;;;5055841;28;19921;-59
2023/07/19 10:16:59;;;;;;;;;;;22.70;61.10;;;;;;5054876;28;19975;-60
2023/07/19 10:19:25;;;;;;;;;;;22.80;61.00;;;;;;5034648;28;19935;-59
2023/07/19 10:22:06;;;;;;;;;;;22.80;61.00;;;;;;5037058;28;20282;-61
2023/07/19 10:24:35;;;;;;;;;;;22.90;61.20;;;;;;5037885;28;19982;-62
2023/07/19 10:27:02;;;;;;;;;;;23.00;61.20;;;;;;5036793;28;20391;-60
2023/07/19 10:29:36;;;;;;;;;;;23.00;61.00;;;;;;5052462;28;19931;-61
2023/07/19 10:32:03;;;;;;;;;;;23.10;61.00;;;;;;5041728;28;19931;-59
2023/07/19 10:34:29;;;;;;;;;;;23.20;60.80;;;;;;5038928;28;19973;-59
2023/07/19 10:37:00;;;;;;;;;;;23.20;61.40;;;;;;5055273;28;21729;-60
2023/07/19 10:39:25;;;;;;;;;;;23.20;60.50;;;;;;5057380;28;19922;-60
2023/07/19 10:41:51;;;;;;;;;;;23.30;60.40;;;;;;5036378;28;20615;-61
2023/07/19 10:44:17;;;;;;;;;;;23.30;60.30;;;;;;5039015;28;19978;-60
2023/07/19 10:46:45;;;;;;;;;;;23.30;60.30;;;;;;5056483;28;21421;-59
2023/07/19 10:49:10;;;;;;;;;;;23.30;60.30;;;;;;5062131;28;19921;-59
2023/07/19 10:51:36;;;;;;;;;;;23.40;60.20;;;;;;5050402;28;19920;-61
2023/07/19 10:54:01;;;;;;;;;;;23.40;59.90;;;;;;5054788;28;20395;-59
2023/07/19 10:56:27;;;;;;;;;;;23.40;59.90;;;;;;5048459;28;20342;-60
2023/07/19 10:59:00;;;;;;;;;;;23.40;59.90;;;;;;5029517;28;19931;-60
2023/07/19 11:01:28;;;;;;;;;;;23.40;60.00;;;;;;5049544;28;19921;-59
2023/07/19 11:03:54;;;;;;;;;;;23.30;59.90;;;;;;5053542;28;19932;-59
2023/07/19 11:06:20;;;;;;;;;;;23.30;60.00;;;;;;5066157;28;19920;-60
2023/07/19 11:08:45;;;;;;;;;;;23.30;60.10;;;;;;5066179;28;19924;-60
2023/07/19 11:11:12;;;;;;;;;;;23.30;60.20;;;;;;5067008;28;20342;-59
2023/07/19 11:13:37;;;;;;;;;;;23.30;60.30;;;;;;5048989;28;19931;-60
2023/07/19 11:16:04;;;;;;;;;;;23.20;60.10;;;;;;5059345;28;19920;-60
2023/07/19 11:21:23;;;;;;;;;;;23.20;58.40;;;;;;5105984;27;19912;-59
2023/07/19 11:23:48;;;;;;;;;;;23.20;58.70;;;;;;5088348;28;19924;-59
2023/07/19 11:26:14;;;;;;;;;;;23.20;58.90;;;;;;5069039;28;19921;-59
2023/07/19 11:34:11;;;;;;;;;;;23.20;58.90;;;;;;5107187;27;20302;-59
2023/07/19 11:36:40;;;;;;;;;;;23.20;59.00;;;;;;5091703;28;20457;-58
2023/07/19 11:39:22;;;;;;;;;;;23.20;58.90;;;;;;5088508;28;19920;-60
2023/07/19 11:41:48;;;;;;;;;;;23.20;59.10;;;;;;5089500;28;20288;-60
2023/07/19 11:44:14;;;;;;;;;;;23.20;59.10;;;;;;5084655;28;19928;-61
2023/07/19 11:46:39;;;;;;;;;;;23.20;59.00;;;;;;5083522;28;19978;-60
2023/07/19 11:49:09;;;;;;;;;;;23.20;59.20;;;;;;5115192;27;19920;-59
2023/07/19 11:51:35;;;;;;;;;;;23.20;59.10;;;;;;5093394;28;20524;-59
2023/07/19 11:54:01;;;;;;;;;;;23.20;59.00;;;;;;5082773;28;19925;-59
2023/07/19 11:56:28;;;;;;;;;;;23.10;58.80;;;;;;5093502;28;19920;-59
2023/07/19 11:58:53;;;;;;;;;;;23.10;58.70;;;;;;5100255;28;19948;-59
2023/07/19 12:01:20;;;;;;;;;;;23.10;58.90;;;;;;5091714;28;19976;-59
2023/07/19 12:03:46;;;;;;;;;;;23.00;59.00;;;;;;5084821;28;20295;-59
2023/07/19 12:06:14;;;;;;;;;;;23.10;59.00;;;;;;5097575;28;19924;-60
2023/07/19 12:08:41;;;;;;;;;;;23.00;58.90;;;;;;5092814;28;19931;-60
2023/07/19 12:11:07;;;;;;;;;;;23.00;59.00;;;;;;5091980;28;20397;-59
2023/07/19 12:13:33;;;;;;;;;;;23.00;59.20;;;;;;5095485;28;19942;-60
2023/07/19 12:15:59;;;;;;;;;;;23.00;59.00;;;;;;5091174;28;19920;-59
2023/07/19 12:18:25;;;;;;;;;;;23.00;59.40;;;;;;5082557;28;19978;-58
2023/07/19 12:20:51;;;;;;;;;;;23.00;59.40;;;;;;5087253;28;19920;-58
2023/07/19 12:23:16;;;;;;;;;;;23.00;59.40;;;;;;5085199;28;20011;-59
2023/07/19 12:25:42;;;;;;;;;;;23.00;59.40;;;;;;5083771;28;19932;-59
2023/07/19 12:28:07;;;;;;;;;;;23.00;59.40;;;;;;5084230;28;19928;-58
2023/07/19 12:30:33;;;;;;;;;;;23.00;59.40;;;;;;5083539;28;19928;-59
2023/07/19 12:32:58;;;;;;;;;;;23.00;59.50;;;;;;5084846;28;19977;-59
2023/07/19 12:35:25;;;;;;;;;;;23.00;59.50;;;;;;5084253;28;20406;-59
2023/07/19 12:37:51;;;;;;;;;;;23.00;59.50;;;;;;5083656;28;20312;-59
2023/07/19 12:40:16;;;;;;;;;;;22.90;59.40;;;;;;5075843;28;19920;-59
2023/07/19 12:42:42;;;;;;;;;;;23.00;59.50;;;;;;5107564;28;20038;-59
2023/07/19 12:45:09;;;;;;;;;;;23.00;60.20;;;;;;5074043;28;20185;-59
2023/07/19 12:47:35;;;;;;;;;;;22.90;59.50;;;;;;5080152;28;19927;-59
2023/07/19 12:50:01;;;;;;;;;;;22.90;59.50;;;;;;5080744;28;19920;-59
2023/07/19 12:52:26;;;;;;;;;;;22.90;59.50;;;;;;5079488;28;19932;-59
2023/07/19 12:54:52;;;;;;;;;;;22.90;59.50;;;;;;5078932;28;19969;-58
2023/07/19 12:57:17;;;;;;;;;;;22.90;59.50;;;;;;5080390;28;19920;-58
2023/07/19 12:59:43;;;;;;;;;;;22.90;59.50;;;;;;5077634;28;19979;-58
2023/07/19 13:02:09;;;;;;;;;;;22.90;59.60;;;;;;5080176;28;20367;-58
2023/07/19 13:04:35;;;;;;;;;;;22.90;60.30;;;;;;5078330;28;20448;-58
2023/07/19 13:07:00;;;;;;;;;;;22.90;59.50;;;;;;5079447;28;19924;-59
2023/07/19 13:09:27;;;;;;;;;;;22.90;59.50;;;;;;5069441;28;19927;-59
2023/07/19 13:11:53;;;;;;;;;;;22.90;59.50;;;;;;5067096;28;19928;-59
2023/07/19 13:14:18;;;;;;;;;;;22.90;59.50;;;;;;5064842;28;19920;-59
2023/07/19 13:16:44;;;;;;;;;;;22.90;59.50;;;;;;5070805;28;19920;-58
2023/07/19 13:19:09;;;;;;;;;;;22.90;59.60;;;;;;5070453;28;19928;-58
2023/07/19 13:21:35;;;;;;;;;;;22.90;59.60;;;;;;5067915;28;19925;-58
2023/07/19 13:24:00;;;;;;;;;;;22.90;59.50;;;;;;5069200;28;19924;-58
2023/07/19 13:26:26;;;;;;;;;;;22.90;59.50;;;;;;5070022;28;20412;-58
2023/07/19 13:28:53;;;;;;;;;;;22.90;59.50;;;;;;5068972;28;19931;-59
2023/07/19 13:31:19;;;;;;;;;;;22.90;59.50;;;;;;5070573;28;20500;-58
2023/07/19 13:33:44;;;;;;;;;;;22.90;59.50;;;;;;5064735;28;19978;-59
2023/07/19 13:36:10;;;;;;;;;;;22.90;59.50;;;;;;5070551;28;19921;-58
2023/07/19 13:38:36;;;;;;;;;;;22.90;59.50;;;;;;5070726;28;19920;-58
2023/07/19 13:41:01;;;;;;;;;;;22.90;59.60;;;;;;5071938;28;19924;-59
2023/07/19 13:43:27;;;;;;;;;;;22.90;59.60;;;;;;5070415;28;19928;-59
2023/07/19 13:45:52;;;;;;;;;;;22.90;59.50;;;;;;5069789;28;19920;-58
2023/07/19 13:48:17;;;;;;;;;;;22.90;59.60;;;;;;5071812;28;19921;-59
2023/07/19 13:50:43;;;;;;;;;;;22.90;59.50;;;;;;5070917;28;20005;-59
2023/07/19 13:53:09;;;;;;;;;;;22.90;59.50;;;;;;5073581;28;19924;-59
2023/07/19 13:55:34;;;;;;;;;;;22.90;59.50;;;;;;5071975;28;19928;-59
2023/07/19 13:58:00;;;;;;;;;;;22.90;59.60;;;;;;5106357;28;19920;-59
2023/07/19 14:00:26;;;;;;;;;;;22.90;59.50;;;;;;5072176;28;19920;-59
2023/07/19 14:02:52;;;;;;;;;;;22.90;59.50;;;;;;5071048;28;19924;-58
2023/07/19 14:05:18;;;;;;;;;;;22.90;59.50;;;;;;5070388;28;19929;-59
2023/07/19 14:07:43;;;;;;;;;;;22.90;59.50;;;;;;5071878;28;19944;-58
2023/07/19 14:10:09;;;;;;;;;;;22.90;59.40;;;;;;5071698;28;20379;-58
2023/07/19 14:12:37;;;;;;;;;;;22.90;59.50;;;;;;5073109;28;19931;-59
2023/07/19 14:15:03;;;;;;;;;;;22.90;59.50;;;;;;5106062;28;19974;-58
2023/07/19 14:17:29;;;;;;;;;;;22.80;60.00;;;;;;5070908;28;19921;-58